Rardin, Illinois
Current Conditions -  °F | °C
As of 7:53 AM on Monday 20 Oct 2014 (Local Time) from KMTO Reporting Station
Broken Clouds Broken Clouds  
Wind Chill: 50°   Ceiling: 8500
Heat Index: 50°   Visibility: 10mi
Dew Point: 46°   Wind: 10mph
Humidity: 86%   Direction: 210°SSW
Pressure: 29.91"   Gusts: NA
Location:  39.5548°N, 88.1725°W
Report Text: KMTO 201253Z AUTO 21009KT 10SM SCT065 BKN085 10/08 A2991 RMK AO2 SLP131 T01000078
Loading
Personal Weather Stations






























Interactive Weather Map
Tropical Storm Tracking
New forecast layout! Learn more

10-Day Weather Forecast

Advertisements
Track Severe Weather on mobile